Time;durP1;ratioP1;P1;durP2;ratioP2;P2;SDS_P1;SDS_P2;PMS_P1;PMS_P2;Temp;Humidity;BMP_temperature;BMP_pressure;BME280_temperature;BME280_humidity;BME280_pressure;Samples;Min_cycle;Max_cycle;Signal;HPM_P1;HPM_P2
2021/12/03 00:00:18;;;;;;;0.00;0.00;;;;;;;;;;4942500;28;20211;-70
2021/12/03 00:02:45;;;;;;;0.00;0.00;;;;;;;;;;4942693;28;20691;-72
2021/12/03 00:05:14;;;;;;;0.00;0.00;;;;;;;;;;4943130;28;20199;-71
2021/12/03 00:07:43;;;;;;;0.00;0.00;;;;;;;;;;4936059;28;20203;-74
2021/12/03 00:10:12;;;;;;;0.00;0.00;;;;;;;;;;4939817;28;20203;-75
2021/12/03 00:12:40;;;;;;;0.00;0.00;;;;;;;;;;4943030;28;20215;-72
2021/12/03 00:15:09;;;;;;;0.00;0.00;;;;;;;;;;4941108;28;20253;-72
2021/12/03 00:17:36;;;;;;;0.00;0.00;;;;;;;;;;4941491;28;20230;-73
2021/12/03 00:20:04;;;;;;;0.00;0.00;;;;;;;;;;4941255;28;20238;-78
2021/12/03 00:22:31;;;;;;;0.00;0.00;;;;;;;;;;4941099;28;20229;-71
2021/12/03 00:25:00;;;;;;;0.00;0.00;;;;;;;;;;4940408;28;20211;-72
2021/12/03 00:27:28;;;;;;;0.00;0.00;;;;;;;;;;4937617;28;20229;-77
2021/12/03 00:29:55;;;;;;;0.00;0.00;;;;;;;;;;4941829;28;20215;-69
2021/12/03 00:32:23;;;;;;;0.03;0.03;;;;;;;;;;4942591;28;20203;-72
2021/12/03 00:34:50;;;;;;;0.17;0.17;;;;;;;;;;4940823;28;20223;-76
2021/12/03 00:37:17;;;;;;;0.00;0.00;;;;;;;;;;4937904;28;20207;-70
2021/12/03 00:39:45;;;;;;;0.00;0.00;;;;;;;;;;4936496;28;20209;-71
2021/12/03 00:42:16;;;;;;;0.00;0.00;;;;;;;;;;4936743;28;20215;-75
2021/12/03 00:44:49;;;;;;;2.83;0.73;;;;;;;;;;4937639;28;20203;-72
2021/12/03 00:47:16;;;;;;;0.00;0.00;;;;;;;;;;4936660;28;20211;-74
2021/12/03 00:49:44;;;;;;;0.00;0.00;;;;;;;;;;4934069;28;20218;-71
2021/12/03 00:52:11;;;;;;;0.00;0.00;;;;;;;;;;4936217;28;20201;-72
2021/12/03 00:54:38;;;;;;;0.00;0.00;;;;;;;;;;4938217;28;20250;-77
2021/12/03 00:57:06;;;;;;;0.00;0.00;;;;;;;;;;4936712;28;20290;-72
2021/12/03 00:59:35;;;;;;;0.00;0.00;;;;;;;;;;4935718;28;20230;-73
2021/12/03 01:02:03;;;;;;;0.00;0.00;;;;;;;;;;4935871;28;20686;-73
2021/12/03 01:04:31;;;;;;;0.00;0.00;;;;;;;;;;4935495;28;20223;-70
2021/12/03 01:06:58;;;;;;;0.00;0.00;;;;;;;;;;4935235;28;20226;-74
2021/12/03 01:09:26;;;;;;;0.00;0.00;;;;;;;;;;4935230;28;20822;-71
2021/12/03 01:11:54;;;;;;;0.00;0.00;;;;;;;;;;4933637;28;20215;-72
2021/12/03 01:14:21;;;;;;;0.00;0.00;;;;;;;;;;4935403;28;20249;-77
2021/12/03 01:16:50;;;;;;;0.00;0.00;;;;;;;;;;4935827;28;20836;-72
2021/12/03 01:19:18;;;;;;;0.00;0.00;;;;;;;;;;4936795;28;20238;-71
2021/12/03 01:21:46;;;;;;;0.00;0.00;;;;;;;;;;4939780;28;20207;-73
2021/12/03 01:24:14;;;;;;;0.00;0.00;;;;;;;;;;4940370;28;20226;-70
2021/12/03 01:26:43;;;;;;;0.00;0.00;;;;;;;;;;4935696;28;20721;-72
2021/12/03 01:29:10;;;;;;;0.00;0.00;;;;;;;;;;4936437;28;20671;-71
2021/12/03 01:31:38;;;;;;;0.00;0.00;;;;;;;;;;4941313;28;21029;-72
2021/12/03 01:34:07;;;;;;;0.00;0.00;;;;;;;;;;4937626;28;20577;-72
2021/12/03 01:36:34;;;;;;;0.00;0.00;;;;;;;;;;4934070;28;20207;-71
2021/12/03 01:39:02;;;;;;;0.00;0.00;;;;;;;;;;4936958;28;20211;-73
2021/12/03 01:41:32;;;;;;;0.00;0.00;;;;;;;;;;4935120;28;22459;-76
2021/12/03 01:44:02;;;;;;;0.00;0.00;;;;;;;;;;4937184;28;20274;-80
2021/12/03 01:46:29;;;;;;;0.00;0.00;;;;;;;;;;4936854;28;20211;-72
2021/12/03 01:48:57;;;;;;;0.00;0.00;;;;;;;;;;4934558;28;20207;-75
2021/12/03 01:51:26;;;;;;;0.00;0.00;;;;;;;;;;4934605;28;20203;-76
2021/12/03 01:53:54;;;;;;;0.00;0.00;;;;;;;;;;4935517;28;20234;-71
2021/12/03 01:56:22;;;;;;;0.30;0.20;;;;;;;;;;4937963;28;20226;-75
2021/12/03 01:58:51;;;;;;;0.00;0.00;;;;;;;;;;4938022;28;20562;-71
2021/12/03 02:01:20;;;;;;;0.10;0.10;;;;;;;;;;4941148;28;20187;-71
2021/12/03 02:03:49;;;;;;;0.00;0.00;;;;;;;;;;4938506;28;20206;-71
2021/12/03 02:06:17;;;;;;;0.00;0.00;;;;;;;;;;4936930;28;20846;-71
2021/12/03 02:08:46;;;;;;;0.00;0.00;;;;;;;;;;4939551;28;20296;-70
2021/12/03 02:11:14;;;;;;;0.00;0.00;;;;;;;;;;4936955;28;20243;-73
2021/12/03 02:13:42;;;;;;;0.00;0.00;;;;;;;;;;4938168;28;20203;-74
2021/12/03 02:16:11;;;;;;;0.00;0.00;;;;;;;;;;4941440;28;20199;-72
2021/12/03 02:18:38;;;;;;;0.00;0.00;;;;;;;;;;4938825;28;20211;-76
2021/12/03 02:21:08;;;;;;;0.30;0.27;;;;;;;;;;4940693;28;20241;-70
2021/12/03 02:23:36;;;;;;;0.10;0.10;;;;;;;;;;4944099;28;20658;-73
2021/12/03 02:26:04;;;;;;;0.00;0.00;;;;;;;;;;4945334;28;20214;-74
2021/12/03 02:28:33;;;;;;;0.37;0.20;;;;;;;;;;4938317;28;20683;-73
2021/12/03 02:31:00;;;;;;;0.30;0.30;;;;;;;;;;4943536;28;20211;-73
2021/12/03 02:33:28;;;;;;;3.43;2.10;;;;;;;;;;4942401;28;20207;-73
2021/12/03 02:35:55;;;;;;;0.00;0.00;;;;;;;;;;4938112;28;20871;-72
2021/12/03 02:38:26;;;;;;;0.00;0.00;;;;;;;;;;4936856;28;20294;-71
2021/12/03 02:40:54;;;;;;;0.00;0.00;;;;;;;;;;4940360;28;20570;-76
2021/12/03 02:43:21;;;;;;;0.10;0.10;;;;;;;;;;4942497;28;20195;-70
2021/12/03 02:45:50;;;;;;;0.00;0.00;;;;;;;;;;4943530;28;20203;-71
2021/12/03 02:48:18;;;;;;;0.00;0.00;;;;;;;;;;4940686;28;20214;-71
2021/12/03 02:50:45;;;;;;;0.00;0.00;;;;;;;;;;4941285;28;20568;-71
2021/12/03 02:53:13;;;;;;;0.50;0.50;;;;;;;;;;4942687;28;20211;-71
2021/12/03 02:55:42;;;;;;;0.00;0.00;;;;;;;;;;4940867;28;20241;-71
2021/12/03 02:58:10;;;;;;;0.33;0.27;;;;;;;;;;4941266;28;20209;-72
2021/12/03 03:00:37;;;;;;;0.57;0.53;;;;;;;;;;4944590;28;20801;-75
2021/12/03 03:03:05;;;;;;;1.50;0.83;;;;;;;;;;4943477;28;20207;-74
2021/12/03 03:05:32;;;;;;;6.83;0.47;;;;;;;;;;4944551;28;20222;-72
2021/12/03 03:08:00;;;;;;;0.00;0.00;;;;;;;;;;4945496;28;20213;-80
2021/12/03 03:10:30;;;;;;;0.00;0.00;;;;;;;;;;4946403;28;20207;-80
2021/12/03 03:13:00;;;;;;;0.23;0.23;;;;;;;;;;4947142;28;20211;-78
2021/12/03 03:15:28;;;;;;;0.00;0.00;;;;;;;;;;4947416;28;20674;-71
2021/12/03 03:17:56;;;;;;;0.00;0.00;;;;;;;;;;4945102;28;20215;-71
2021/12/03 03:20:23;;;;;;;1.40;0.50;;;;;;;;;;4945701;28;21867;-71
2021/12/03 03:22:52;;;;;;;0.93;0.93;;;;;;;;;;4947454;28;20207;-71
2021/12/03 03:25:21;;;;;;;0.63;0.37;;;;;;;;;;4945088;28;20203;-72
2021/12/03 03:27:48;;;;;;;0.53;0.50;;;;;;;;;;4947000;28;20226;-70
2021/12/03 03:30:19;;;;;;;0.30;0.17;;;;;;;;;;4944641;28;20210;-74
2021/12/03 03:32:46;;;;;;;0.20;0.20;;;;;;;;;;4945477;28;20557;-77
2021/12/03 03:35:14;;;;;;;0.00;0.00;;;;;;;;;;4945904;28;20246;-71
2021/12/03 03:37:41;;;;;;;0.33;0.23;;;;;;;;;;4947216;28;20199;-74
2021/12/03 03:40:11;;;;;;;0.00;0.00;;;;;;;;;;4946945;28;20345;-71
2021/12/03 03:42:38;;;;;;;0.73;0.73;;;;;;;;;;4944706;28;20215;-71
2021/12/03 03:45:09;;;;;;;1.17;0.63;;;;;;;;;;4944993;28;20217;-70
2021/12/03 03:47:38;;;;;;;0.27;0.27;;;;;;;;;;4945636;28;20898;-71
2021/12/03 03:50:06;;;;;;;0.00;0.00;;;;;;;;;;4947217;28;20679;-71
2021/12/03 03:52:33;;;;;;;0.00;0.00;;;;;;;;;;4943383;28;20211;-76
2021/12/03 03:55:01;;;;;;;0.20;0.20;;;;;;;;;;4943985;28;20238;-72
2021/12/03 03:57:29;;;;;;;0.30;0.30;;;;;;;;;;4946132;28;20286;-70
2021/12/03 03:59:57;;;;;;;0.47;0.47;;;;;;;;;;4943434;28;20230;-71
2021/12/03 04:02:25;;;;;;;0.47;0.47;;;;;;;;;;4941350;28;20206;-71
2021/12/03 04:04:54;;;;;;;1.10;0.30;;;;;;;;;;4938635;28;20228;-77
2021/12/03 04:07:21;;;;;;;0.00;0.00;;;;;;;;;;4935412;28;20217;-71
2021/12/03 04:09:48;;;;;;;0.07;0.07;;;;;;;;;;4939438;28;21197;-72
2021/12/03 04:12:16;;;;;;;1.60;1.30;;;;;;;;;;4943216;28;20234;-70
2021/12/03 04:14:43;;;;;;;0.43;0.43;;;;;;;;;;4944656;28;20591;-70
2021/12/03 04:17:11;;;;;;;1.00;1.00;;;;;;;;;;4941827;28;20203;-70
2021/12/03 04:19:38;;;;;;;0.20;0.20;;;;;;;;;;4944894;28;20246;-71
2021/12/03 04:22:07;;;;;;;0.37;0.37;;;;;;;;;;4943245;28;20199;-71
2021/12/03 04:24:35;;;;;;;0.83;0.83;;;;;;;;;;4943874;28;20214;-70
2021/12/03 04:27:02;;;;;;;0.73;0.63;;;;;;;;;;4944277;28;20590;-70
2021/12/03 04:29:30;;;;;;;0.50;0.50;;;;;;;;;;4944539;28;20641;-71
2021/12/03 04:31:57;;;;;;;0.57;0.50;;;;;;;;;;4944691;28;20709;-70
2021/12/03 04:34:25;;;;;;;0.43;0.43;;;;;;;;;;4942861;28;20582;-71
2021/12/03 04:36:52;;;;;;;0.53;0.53;;;;;;;;;;4943100;28;20338;-75
2021/12/03 04:39:21;;;;;;;0.40;0.40;;;;;;;;;;4943770;28;20207;-71
2021/12/03 04:41:48;;;;;;;0.20;0.20;;;;;;;;;;4942587;28;20204;-70
2021/12/03 04:44:16;;;;;;;0.43;0.43;;;;;;;;;;4942097;28;20210;-72
2021/12/03 04:46:43;;;;;;;0.70;0.13;;;;;;;;;;4942626;28;20701;-71
2021/12/03 04:49:11;;;;;;;0.10;0.10;;;;;;;;;;4942147;28;20656;-71
2021/12/03 04:51:38;;;;;;;0.43;0.43;;;;;;;;;;4940721;28;20211;-71
2021/12/03 04:54:06;;;;;;;0.43;0.43;;;;;;;;;;4940760;28;20309;-73
2021/12/03 04:56:35;;;;;;;0.57;0.57;;;;;;;;;;4943857;28;20596;-71
2021/12/03 04:59:02;;;;;;;0.73;0.50;;;;;;;;;;4941765;28;20214;-72
2021/12/03 05:01:29;;;;;;;0.20;0.20;;;;;;;;;;4943975;28;20795;-71
2021/12/03 05:03:57;;;;;;;0.10;0.10;;;;;;;;;;4939981;28;20283;-71
2021/12/03 05:06:41;;;;;;;0.90;0.90;;;;;;;;;;4937970;28;20211;-72
2021/12/03 05:09:09;;;;;;;0.20;0.20;;;;;;;;;;4939547;28;20314;-71
2021/12/03 05:11:37;;;;;;;0.63;0.63;;;;;;;;;;4939505;28;20203;-71
2021/12/03 05:14:05;;;;;;;0.20;0.20;;;;;;;;;;4941777;28;20194;-72
2021/12/03 05:16:32;;;;;;;0.10;0.10;;;;;;;;;;4940637;28;20235;-75
2021/12/03 05:19:00;;;;;;;0.00;0.00;;;;;;;;;;4943929;28;20627;-75
2021/12/03 05:21:27;;;;;;;0.27;0.27;;;;;;;;;;4941341;28;20204;-74
2021/12/03 05:23:55;;;;;;;0.67;0.67;;;;;;;;;;4936898;28;20695;-72
2021/12/03 05:26:23;;;;;;;0.50;0.50;;;;;;;;;;4938063;28;20221;-75
2021/12/03 05:28:51;;;;;;;0.03;0.03;;;;;;;;;;4940414;28;20206;-71
2021/12/03 05:31:19;;;;;;;0.03;0.03;;;;;;;;;;4939618;28;21887;-72
2021/12/03 05:33:46;;;;;;;0.00;0.00;;;;;;;;;;4937589;28;20679;-72
2021/12/03 05:36:14;;;;;;;0.40;0.17;;;;;;;;;;4940992;28;20238;-72
2021/12/03 05:38:41;;;;;;;0.10;0.10;;;;;;;;;;4938677;28;20202;-71
2021/12/03 05:41:08;;;;;;;0.70;0.70;;;;;;;;;;4938058;28;20826;-71
2021/12/03 05:43:36;;;;;;;1.90;0.87;;;;;;;;;;4940854;28;20308;-73
2021/12/03 05:46:04;;;;;;;0.53;0.53;;;;;;;;;;4947679;28;20207;-74
2021/12/03 05:48:32;;;;;;;0.63;0.10;;;;;;;;;;4944675;28;20203;-72
2021/12/03 05:50:59;;;;;;;0.10;0.10;;;;;;;;;;4940970;28;20210;-70
2021/12/03 05:53:27;;;;;;;0.00;0.00;;;;;;;;;;4941888;28;20214;-70
2021/12/03 05:55:54;;;;;;;0.93;0.67;;;;;;;;;;4942199;28;22506;-71
2021/12/03 05:58:22;;;;;;;0.67;0.67;;;;;;;;;;4943877;28;20230;-71
2021/12/03 06:00:50;;;;;;;2.17;0.60;;;;;;;;;;4941232;28;20207;-74
2021/12/03 06:03:19;;;;;;;8.13;0.90;;;;;;;;;;4943581;28;20266;-72
2021/12/03 06:05:46;;;;;;;0.20;0.20;;;;;;;;;;4945369;28;20198;-70
2021/12/03 06:08:14;;;;;;;2.97;2.73;;;;;;;;;;4938914;28;20225;-72
2021/12/03 06:10:42;;;;;;;0.27;0.27;;;;;;;;;;4940506;28;20210;-75
2021/12/03 06:13:09;;;;;;;0.87;0.87;;;;;;;;;;4943080;28;20202;-72
2021/12/03 06:15:36;;;;;;;0.63;0.63;;;;;;;;;;4942695;28;20603;-74
2021/12/03 06:18:04;;;;;;;0.43;0.43;;;;;;;;;;4944075;28;20191;-70
2021/12/03 06:20:33;;;;;;;0.70;0.70;;;;;;;;;;4941706;28;20230;-71
2021/12/03 06:23:00;;;;;;;8.57;1.17;;;;;;;;;;4942106;28;20682;-71
2021/12/03 06:25:28;;;;;;;1.33;1.03;;;;;;;;;;4944828;28;20582;-72
2021/12/03 06:27:58;;;;;;;12.00;1.40;;;;;;;;;;4943594;28;20195;-70
2021/12/03 06:30:25;;;;;;;1.10;1.10;;;;;;;;;;4940316;28;20297;-73
2021/12/03 06:32:53;;;;;;;0.67;0.30;;;;;;;;;;4937315;28;20211;-73
2021/12/03 06:35:21;;;;;;;0.33;0.33;;;;;;;;;;4941731;28;21417;-75
2021/12/03 06:37:50;;;;;;;1.20;1.07;;;;;;;;;;4945095;28;20222;-72
2021/12/03 06:40:19;;;;;;;0.50;0.33;;;;;;;;;;4937387;28;20207;-70
2021/12/03 06:42:46;;;;;;;1.00;1.00;;;;;;;;;;4940845;28;20207;-73
2021/12/03 06:45:14;;;;;;;0.07;0.07;;;;;;;;;;4945223;28;20217;-72
2021/12/03 06:47:42;;;;;;;1.37;1.27;;;;;;;;;;4942934;28;20222;-71
2021/12/03 06:50:12;;;;;;;1.03;0.90;;;;;;;;;;4941573;28;20207;-70
2021/12/03 06:52:42;;;;;;;6.43;2.53;;;;;;;;;;4943433;28;20379;-70
2021/12/03 06:55:14;;;;;;;0.40;0.40;;;;;;;;;;4941425;28;20203;-71
2021/12/03 06:57:43;;;;;;;4.90;0.77;;;;;;;;;;4941466;28;21623;-72
2021/12/03 07:00:11;;;;;;;2.27;1.00;;;;;;;;;;4943364;28;20668;-70
2021/12/03 07:02:38;;;;;;;2.93;2.73;;;;;;;;;;4938307;28;20624;-73
2021/12/03 07:05:06;;;;;;;1.47;0.80;;;;;;;;;;4939886;28;21176;-72
2021/12/03 07:07:34;;;;;;;7.47;1.60;;;;;;;;;;4942509;28;20575;-71
2021/12/03 07:10:02;;;;;;;1.37;0.97;;;;;;;;;;4943548;28;20203;-71
2021/12/03 07:12:31;;;;;;;0.13;0.13;;;;;;;;;;4936818;28;20219;-71
2021/12/03 07:14:58;;;;;;;1.07;1.07;;;;;;;;;;4939245;28;20202;-71
2021/12/03 07:17:30;;;;;;;1.70;1.17;;;;;;;;;;4940350;28;20219;-72
2021/12/03 07:19:58;;;;;;;0.23;0.23;;;;;;;;;;4936860;28;20234;-72
2021/12/03 07:22:25;;;;;;;0.50;0.50;;;;;;;;;;4943098;28;20207;-71
2021/12/03 07:24:53;;;;;;;1.67;0.80;;;;;;;;;;4943238;28;20723;-71
2021/12/03 07:27:21;;;;;;;0.00;0.00;;;;;;;;;;4945293;28;20207;-72
2021/12/03 07:29:50;;;;;;;0.73;0.73;;;;;;;;;;4944985;28;21135;-73
2021/12/03 07:32:18;;;;;;;0.60;0.37;;;;;;;;;;4946938;28;20213;-71
2021/12/03 07:34:45;;;;;;;0.20;0.20;;;;;;;;;;4945331;28;20207;-71
2021/12/03 07:37:13;;;;;;;0.50;0.50;;;;;;;;;;4943119;28;20351;-71
2021/12/03 07:39:41;;;;;;;0.73;0.70;;;;;;;;;;4940194;28;20952;-70
2021/12/03 07:42:09;;;;;;;0.97;0.73;;;;;;;;;;4940684;28;20203;-73
2021/12/03 07:44:36;;;;;;;1.03;0.40;;;;;;;;;;4944711;28;20210;-71
2021/12/03 07:47:05;;;;;;;0.97;0.97;;;;;;;;;;4943123;28;20213;-71
2021/12/03 07:49:33;;;;;;;2.10;1.03;;;;;;;;;;4937608;28;20218;-73
2021/12/03 07:52:01;;;;;;;1.20;1.10;;;;;;;;;;4949957;28;20250;-70
2021/12/03 07:54:28;;;;;;;0.03;0.03;;;;;;;;;;4949095;28;20206;-71
2021/12/03 07:56:56;;;;;;;0.97;0.97;;;;;;;;;;4954161;28;20233;-72
2021/12/03 07:59:23;;;;;;;1.23;0.90;;;;;;;;;;4955860;28;20202;-75
2021/12/03 08:01:51;;;;;;;5.83;1.03;;;;;;;;;;4950416;28;20207;-71
2021/12/03 08:04:20;;;;;;;1.10;0.87;;;;;;;;;;4951263;28;20210;-72
2021/12/03 08:06:52;;;;;;;1.27;1.17;;;;;;;;;;4953967;28;20574;-71
2021/12/03 08:09:20;;;;;;;0.37;0.37;;;;;;;;;;4949973;28;20210;-71
2021/12/03 08:11:47;;;;;;;0.43;0.43;;;;;;;;;;4951173;28;20253;-73
2021/12/03 08:14:14;;;;;;;0.23;0.23;;;;;;;;;;4955797;28;20207;-71
2021/12/03 08:16:43;;;;;;;0.00;0.00;;;;;;;;;;4952369;28;20725;-71
2021/12/03 08:19:10;;;;;;;1.03;0.80;;;;;;;;;;4940425;28;20715;-72
2021/12/03 08:21:39;;;;;;;1.07;1.07;;;;;;;;;;4942898;28;20217;-72
2021/12/03 08:24:06;;;;;;;0.50;0.50;;;;;;;;;;4946705;28;20295;-73
2021/12/03 08:26:34;;;;;;;2.30;1.00;;;;;;;;;;4945415;28;20207;-72
2021/12/03 08:29:01;;;;;;;0.20;0.20;;;;;;;;;;4939691;28;20242;-74
2021/12/03 08:31:29;;;;;;;0.93;0.23;;;;;;;;;;4937904;28;22173;-70
2021/12/03 08:33:56;;;;;;;0.47;0.47;;;;;;;;;;4934737;28;20675;-71
2021/12/03 08:36:23;;;;;;;0.33;0.33;;;;;;;;;;4938523;28;20888;-75
2021/12/03 08:38:52;;;;;;;3.27;0.20;;;;;;;;;;4937259;28;20215;-71
2021/12/03 08:41:20;;;;;;;0.50;0.50;;;;;;;;;;4934357;28;20203;-72
2021/12/03 08:43:47;;;;;;;0.20;0.20;;;;;;;;;;4935683;28;20207;-72
2021/12/03 08:46:19;;;;;;;0.67;0.67;;;;;;;;;;4937544;28;20287;-74
2021/12/03 08:48:48;;;;;;;0.10;0.10;;;;;;;;;;4935980;28;20321;-74
2021/12/03 08:51:27;;;;;;;0.97;0.23;;;;;;;;;;4935925;28;20269;-74
2021/12/03 08:56:41;;;;;;;5.80;2.10;;;;;;;;;;4939089;28;20350;-74
2021/12/03 08:59:08;;;;;;;8.97;2.03;;;;;;;;;;4935071;28;20209;-72
2021/12/03 09:01:36;;;;;;;0.37;0.37;;;;;;;;;;4940933;28;20691;-72
2021/12/03 09:04:04;;;;;;;3.67;0.87;;;;;;;;;;4940248;28;20229;-72
2021/12/03 09:06:32;;;;;;;2.00;1.10;;;;;;;;;;4936052;28;20221;-74
2021/12/03 09:09:00;;;;;;;0.17;0.17;;;;;;;;;;4934181;28;20206;-71
2021/12/03 09:11:29;;;;;;;2.17;1.20;;;;;;;;;;4939028;28;20222;-72
2021/12/03 09:14:00;;;;;;;0.50;0.50;;;;;;;;;;4941104;28;20203;-75
2021/12/03 09:16:28;;;;;;;0.60;0.60;;;;;;;;;;4937354;28;20321;-75
2021/12/03 09:18:56;;;;;;;2.27;0.87;;;;;;;;;;4940091;28;20203;-71
2021/12/03 09:21:25;;;;;;;2.23;1.70;;;;;;;;;;4941781;28;20223;-71
2021/12/03 09:26:39;;;;;;;1.10;0.70;;;;;;;;;;4938266;28;20206;-75
2021/12/03 09:29:08;;;;;;;0.10;0.10;;;;;;;;;;4942211;28;20301;-71
2021/12/03 09:31:36;;;;;;;0.60;0.40;;;;;;;;;;4939115;28;20352;-73
2021/12/03 09:34:08;;;;;;;0.10;0.10;;;;;;;;;;4943294;28;20668;-72
2021/12/03 09:36:39;;;;;;;1.23;1.13;;;;;;;;;;4939301;28;20338;-73
2021/12/03 09:39:08;;;;;;;0.20;0.20;;;;;;;;;;4942554;28;20239;-74
2021/12/03 09:41:37;;;;;;;0.10;0.10;;;;;;;;;;4940064;28;20215;-73
2021/12/03 09:44:05;;;;;;;0.80;0.80;;;;;;;;;;4939353;28;20203;-72
2021/12/03 09:46:32;;;;;;;0.57;0.57;;;;;;;;;;4943301;28;20214;-74
2021/12/03 09:51:52;;;;;;;3.53;2.33;;;;;;;;;;4941094;28;20222;-72
2021/12/03 09:54:25;;;;;;;3.17;1.43;;;;;;;;;;4943719;28;20214;-72
2021/12/03 09:56:58;;;;;;;1.60;1.10;;;;;;;;;;4944605;28;20234;-73
2021/12/03 10:02:16;;;;;;;5.07;1.67;;;;;;;;;;4929550;28;20210;-70
2021/12/03 10:05:01;;;;;;;1.23;1.13;;;;;;;;;;4943705;28;20202;-71
2021/12/03 10:13:11;;;;;;;1.90;1.37;;;;;;;;;;4945981;28;20290;-72
2021/12/03 10:15:57;;;;;;;2.03;1.30;;;;;;;;;;4946914;28;20222;-71
2021/12/03 10:18:39;;;;;;;1.27;1.17;;;;;;;;;;4945569;28;20274;-70
2021/12/03 10:21:14;;;;;;;0.90;0.90;;;;;;;;;;4945663;28;20316;-70
2021/12/03 10:27:14;;;;;;;0.63;0.63;;;;;;;;;;4936770;28;20336;-73
2021/12/03 10:29:52;;;;;;;1.70;0.93;;;;;;;;;;4945819;28;20207;-71
2021/12/03 10:35:30;;;;;;;0.77;0.63;;;;;;;;;;4946022;28;20686;-73
2021/12/03 10:38:13;;;;;;;0.67;0.67;;;;;;;;;;4946843;28;20239;-71
2021/12/03 10:40:54;;;;;;;2.00;1.90;;;;;;;;;;4945223;28;20773;-72
2021/12/03 10:43:47;;;;;;;0.63;0.50;;;;;;;;;;4946720;28;20293;-71
2021/12/03 10:46:26;;;;;;;5.80;1.20;;;;;;;;;;4943587;28;20215;-71
2021/12/03 10:49:00;;;;;;;1.93;1.47;;;;;;;;;;4939982;28;20221;-73
2021/12/03 10:51:44;;;;;;;1.83;1.70;;;;;;;;;;4945123;28;20976;-72
2021/12/03 10:54:20;;;;;;;0.83;0.37;;;;;;;;;;4941918;28;20195;-72
2021/12/03 10:59:57;;;;;;;2.67;1.50;;;;;;;;;;4936960;28;20214;-69
2021/12/03 11:31:23;;;;;;;3.00;1.67;;;;;;;;;;4934072;28;20614;-72
2021/12/03 11:34:24;;;;;;;1.70;1.30;;;;;;;;;;4944465;28;20222;-71
2021/12/03 12:25:09;;;;;;;0.73;0.60;;;;;;;;;;4919712;29;20210;-67
2021/12/03 12:46:59;;;;;;;0.80;0.70;;;;;;;;;;4920682;29;20207;-71
2021/12/03 13:11:14;;;;;;;0.90;0.90;;;;;;;;;;4940358;28;22279;-71
2021/12/03 13:14:20;;;;;;;1.77;1.67;;;;;;;;;;4939645;28;20235;-72
2021/12/03 13:23:08;;;;;;;1.60;1.50;;;;;;;;;;4885764;29;20668;-71
2021/12/03 13:26:24;;;;;;;0.93;0.93;;;;;;;;;;4928041;28;20202;-72
2021/12/03 13:57:49;;;;;;;1.13;1.07;;;;;;;;;;4942246;28;20376;-73
2021/12/03 14:08:59;;;;;;;0.40;0.40;;;;;;;;;;4947280;28;20242;-73
2021/12/03 14:37:33;;;;;;;1.70;1.60;;;;;;;;;;4944111;28;20242;-73
2021/12/03 14:40:17;;;;;;;1.70;0.97;;;;;;;;;;4944133;28;20330;-73
2021/12/03 14:48:43;;;;;;;0.57;0.57;;;;;;;;;;4944083;28;20222;-73
2021/12/03 14:51:24;;;;;;;1.63;1.50;;;;;;;;;;4945014;28;20676;-73
2021/12/03 14:56:43;;;;;;;2.53;2.17;;;;;;;;;;4931715;28;20206;-73
2021/12/03 14:59:15;;;;;;;1.13;0.60;;;;;;;;;;4946077;28;20203;-73
2021/12/03 15:01:58;;;;;;;1.67;1.23;;;;;;;;;;4945423;28;20676;-73
2021/12/03 15:07:19;;;;;;;1.53;1.33;;;;;;;;;;4930340;28;20820;-73
2021/12/03 15:09:48;;;;;;;0.03;0.03;;;;;;;;;;4944652;28;20204;-73
2021/12/03 15:12:56;;;;;;;1.83;1.73;;;;;;;;;;4945492;28;20199;-75
2021/12/03 15:21:28;;;;;;;0.60;0.60;;;;;;;;;;4945171;28;20362;-72
2021/12/03 15:32:14;;;;;;;1.17;1.07;;;;;;;;;;4945261;28;20325;-74
2021/12/03 15:34:53;;;;;;;1.77;1.67;;;;;;;;;;4945018;28;20262;-73
2021/12/03 15:37:41;;;;;;;0.70;0.50;;;;;;;;;;4944030;28;20747;-74
2021/12/03 15:40:26;;;;;;;2.43;2.23;;;;;;;;;;4944967;28;20209;-73
2021/12/03 16:05:01;;;;;;;1.50;0.87;;;;;;;;;;4944117;28;20213;-73
2021/12/03 16:07:54;;;;;;;4.63;2.17;;;;;;;;;;4941609;28;20616;-73
2021/12/03 16:10:27;;;;;;;0.63;0.63;;;;;;;;;;4944538;28;20218;-74
2021/12/03 16:13:06;;;;;;;2.27;2.17;;;;;;;;;;4941130;28;20658;-73
2021/12/03 16:24:24;;;;;;;2.50;2.30;;;;;;;;;;4944961;29;20274;-74
2021/12/03 16:51:52;;;;;;;2.50;2.23;;;;;;;;;;4942102;28;20938;-74
2021/12/03 16:54:25;;;;;;;0.77;0.77;;;;;;;;;;4942952;28;20218;-74
2021/12/03 16:56:55;;;;;;;3.47;3.17;;;;;;;;;;4944891;28;20270;-74
2021/12/03 16:59:24;;;;;;;1.27;1.27;;;;;;;;;;4943705;28;20235;-74
2021/12/03 17:01:54;;;;;;;2.30;1.70;;;;;;;;;;4942223;28;20696;-73
2021/12/03 17:04:36;;;;;;;2.07;1.77;;;;;;;;;;4940711;28;20851;-74
2021/12/03 17:51:14;;;;;;;2.07;1.97;;;;;;;;;;4952183;28;20240;-74
2021/12/03 17:53:52;;;;;;;1.20;0.67;;;;;;;;;;4946935;28;20301;-73
2021/12/03 17:56:20;;;;;;;1.63;1.53;;;;;;;;;;4940113;28;20206;-73
2021/12/03 17:58:50;;;;;;;6.20;2.63;;;;;;;;;;4968517;28;20300;-74
2021/12/03 18:01:21;;;;;;;2.77;2.57;;;;;;;;;;4957133;28;20218;-73
2021/12/03 18:03:55;;;;;;;1.10;1.00;;;;;;;;;;4955100;28;20199;-73
2021/12/03 18:09:21;;;;;;;2.10;1.90;;;;;;;;;;4941435;28;20216;-73
2021/12/03 18:15:27;;;;;;;2.33;2.13;;;;;;;;;;4951791;28;20214;-73
2021/12/03 18:48:54;;;;;;;2.23;2.03;;;;;;;;;;4953247;28;20307;-72
2021/12/03 18:51:29;;;;;;;1.07;1.03;;;;;;;;;;4954494;28;20246;-73
2021/12/03 18:54:13;;;;;;;3.13;2.03;;;;;;;;;;4968907;28;20198;-72
2021/12/03 18:56:44;;;;;;;0.87;0.87;;;;;;;;;;4952440;28;20266;-72
2021/12/03 18:59:12;;;;;;;1.27;1.13;;;;;;;;;;4954867;28;20289;-74
2021/12/03 19:01:39;;;;;;;3.53;1.17;;;;;;;;;;4960264;28;20217;-73
2021/12/03 19:04:17;;;;;;;3.57;2.90;;;;;;;;;;4953548;28;20319;-73
2021/12/03 19:06:54;;;;;;;4.00;3.67;;;;;;;;;;4948277;28;20206;-73
2021/12/03 19:09:26;;;;;;;1.63;1.23;;;;;;;;;;4952810;28;20289;-72
2021/12/03 19:12:01;;;;;;;3.63;3.33;;;;;;;;;;4953328;28;20310;-74
2021/12/03 19:14:32;;;;;;;3.37;2.83;;;;;;;;;;4937708;29;20210;-72
2021/12/03 19:17:00;;;;;;;5.77;5.37;;;;;;;;;;4953988;28;20703;-72
2021/12/03 19:19:29;;;;;;;2.37;2.20;;;;;;;;;;4956771;28;20238;-72
2021/12/03 19:21:59;;;;;;;1.97;1.80;;;;;;;;;;4962887;28;20568;-71
2021/12/03 19:24:28;;;;;;;3.23;2.93;;;;;;;;;;4953623;29;20199;-73
2021/12/03 19:26:55;;;;;;;2.40;2.30;;;;;;;;;;4954648;28;20634;-73
2021/12/03 19:29:24;;;;;;;1.20;1.10;;;;;;;;;;4959618;28;20214;-73
2021/12/03 19:31:52;;;;;;;2.10;1.90;;;;;;;;;;4956344;28;20203;-73
2021/12/03 19:34:21;;;;;;;0.67;0.67;;;;;;;;;;4952856;28;20207;-72
2021/12/03 19:36:48;;;;;;;2.77;2.00;;;;;;;;;;4951338;28;20219;-72
2021/12/03 19:39:18;;;;;;;3.70;3.33;;;;;;;;;;4953791;28;20239;-72
2021/12/03 19:41:52;;;;;;;7.63;6.40;;;;;;;;;;4965717;28;20203;-73
2021/12/03 19:44:22;;;;;;;1.80;1.27;;;;;;;;;;4953237;28;20203;-72
2021/12/03 19:46:51;;;;;;;2.70;2.43;;;;;;;;;;4952821;28;20269;-72
2021/12/03 19:49:21;;;;;;;1.27;0.93;;;;;;;;;;4954842;28;20257;-72
2021/12/03 19:51:51;;;;;;;4.03;3.30;;;;;;;;;;4964102;28;20218;-72
2021/12/03 19:54:21;;;;;;;2.50;2.30;;;;;;;;;;4954295;28;20207;-72
2021/12/03 19:56:49;;;;;;;0.47;0.47;;;;;;;;;;4950328;28;20203;-72
2021/12/03 19:59:18;;;;;;;4.33;3.43;;;;;;;;;;4950865;28;21149;-72
2021/12/03 20:01:46;;;;;;;2.67;2.00;;;;;;;;;;4966472;28;20261;-72
2021/12/03 20:04:14;;;;;;;1.47;1.37;;;;;;;;;;4953442;28;20213;-73
2021/12/03 20:06:43;;;;;;;2.37;1.60;;;;;;;;;;4952020;28;20206;-76
2021/12/03 20:09:16;;;;;;;7.60;4.37;;;;;;;;;;4952156;28;20214;-72
2021/12/03 20:11:47;;;;;;;6.97;3.43;;;;;;;;;;4953979;28;20279;-72
2021/12/03 20:14:17;;;;;;;0.40;0.40;;;;;;;;;;4951163;28;20281;-73
2021/12/03 20:16:51;;;;;;;1.40;0.93;;;;;;;;;;4950092;28;20206;-73
2021/12/03 20:19:22;;;;;;;1.40;1.40;;;;;;;;;;4950123;28;20255;-72
2021/12/03 20:21:53;;;;;;;1.20;1.17;;;;;;;;;;4949443;28;20249;-72
2021/12/03 20:24:29;;;;;;;1.43;1.33;;;;;;;;;;4951947;28;20203;-73
2021/12/03 20:27:00;;;;;;;4.47;3.13;;;;;;;;;;4952907;28;20207;-72
2021/12/03 20:29:37;;;;;;;2.73;2.47;;;;;;;;;;4952091;28;20214;-73
2021/12/03 20:32:20;;;;;;;3.60;3.30;;;;;;;;;;4951081;29;20294;-72
2021/12/03 20:35:06;;;;;;;4.33;3.50;;;;;;;;;;4944014;28;20199;-72
2021/12/03 20:37:36;;;;;;;4.10;3.47;;;;;;;;;;4943354;28;20203;-75
2021/12/03 20:40:10;;;;;;;1.17;1.07;;;;;;;;;;4951982;28;20665;-71
2021/12/03 20:42:45;;;;;;;1.20;0.90;;;;;;;;;;4952280;29;20218;-72
2021/12/03 20:45:45;;;;;;;1.10;1.10;;;;;;;;;;4946485;28;20234;-72
2021/12/03 20:48:29;;;;;;;5.60;3.77;;;;;;;;;;4951347;28;20215;-72
2021/12/03 20:51:14;;;;;;;4.80;2.70;;;;;;;;;;4954244;28;20718;-72
2021/12/03 20:53:44;;;;;;;2.50;2.30;;;;;;;;;;4954187;28;20620;-72
2021/12/03 21:10:14;;;;;;;6.40;4.07;;;;;;;;;;4953137;28;20265;-73
2021/12/03 21:12:44;;;;;;;1.80;1.67;;;;;;;;;;4951410;28;20217;-72
2021/12/03 21:15:19;;;;;;;3.03;2.23;;;;;;;;;;4951758;28;20208;-72
2021/12/03 21:18:01;;;;;;;3.03;1.73;;;;;;;;;;4944746;28;20210;-74
2021/12/03 21:20:30;;;;;;;1.57;1.43;;;;;;;;;;4950974;28;20249;-72
2021/12/03 21:23:00;;;;;;;6.50;4.30;;;;;;;;;;4950087;28;20971;-72
2021/12/03 21:25:33;;;;;;;3.73;2.50;;;;;;;;;;4951326;28;20211;-73
2021/12/03 21:28:05;;;;;;;1.73;0.97;;;;;;;;;;4952486;28;20202;-73
2021/12/03 21:30:47;;;;;;;2.30;1.63;;;;;;;;;;4950809;28;20218;-72
2021/12/03 21:39:01;;;;;;;2.90;2.23;;;;;;;;;;4934638;28;20233;-73